INFORMAÇÕES DO AERODROMO
Icao Aerodromo CYCP Nome do Aerodromo Blue River Airport Cidade Blue River
Código GPS CYCP Elevação Média 2240 ft Tipo de Aerodromo Aeroporto Médio Porte

INFORMAÇÃO DE PISTA
Pista 01 Comprimento da Pista 5000 ft Largura da Pista 60 ft
Elevação da Pista 0 ft Distância de Area de Escape da Pista 0 ft Orientação da Pista 32
Pista 19 Comprimento da Pista 5000 ft Largura da Pista 60 ft
Elevação da Pista 0 ft Distância de Area de Escape da Pista 0 ft Orientação da Pista 212

FREQUÊNCIAS DO AERODROMO
Tipo ATF Nome ATF Frequência 123.2 MHZ

INFORMAÇÕES DE NAVEGAÇÃO PRÓXIMO AO AERODROMO

Informações de Meteorologia(METAR atual)
METAR DE CYCP
ADDS - METARS form results

(1322 UTC 11 April 2021)
Data provider http://aviationweather.gov/metar/data/
 
METAR text: CYCP 111300Z 00000KT 15SM FEW002 FEW015 BKN150 M07/M08 A3028 RMK ST1SC1AC6 SC TR FROIN SLP290
Conditions at: CYCP (BLUE RIVER (MAN), BC, CA) observed 1300 UTC 11 April 2021
Temperature: -7.0°C (19°F)
Dewpoint: -8.0°C (18°F) [RH = 93%]
Pressure (altimeter): 30.28 inches Hg (1025.5 mb)
[Sea-level pressure: 1029.0 mb]
Winds: calm
Visibility: 15 miles (24 km)
Ceiling: 15000 feet AGL
Clouds: few clouds at 200 feet AGL
few clouds at 1500 feet AGL
broken clouds at 15000 feet AGL
Weather: no significant weather observed at this time

MAPA DO AERODROMO


Desenvolvido por Virtual Airlines Manager




Modificado por Grupo Brasil Amigos